Fort Wayne, IN (46802)

6:51 PM EDT on October 25, 2014 (GMT -0400)
KINFORTW21 | Change Station
CLOSE
Current Station
Personal Weather Station
Location: Fort Wayne, IN
Elevation: 809 ft
Nearby Weather Stations

Elev 809 ft 41.04 °N, 85.13 °W | Updated 3 seconds ago

Clear
Clear
64.8 °F
Feels Like 64.8 °F
N
2.3
Wind Variable Wind from WNW
Gusts 2.3 mph

Today
High -- | Low -- °F
--% Chance of Precip.
Yesterday
High -- | Low -- °F
Precip. -- in
8:03 AM 6:45 PM
Waxing Crescent, 4% visible
Pressure 29.87 in
Visibility 10.0 miles
Clouds Few 25000 ft
Dew Point 31 °F
Humidity 28%
Rainfall 0.00 in
Snow Depth Not available.
UV 0 out of 12
Pollen 1.50 out of 12
PM2.5 Moderate
Flu Activity Sporadic
METAR KFWA 252154Z 29014G21KT 10SM FEW250 21/M02 A2987 RMK AO2 PK WND 28026/2126 SLP114 T02061022

More Conditions Fewer Conditions

Pressure 29.87 in
Visibility 10.0 miles
Clouds Few 25000 ft
Dew Point 31 °F
Humidity 28%
Rainfall 0.00 in
Snow Depth Not available.
UV 0 out of 12
Pollen 1.50 out of 12
PM2.5 Moderate
Flu Activity Sporadic
METAR KFWA 252154Z 29014G21KT 10SM FEW250 21/M02 A2987 RMK AO2 PK WND 28026/2126 SLP114 T02061022

More Conditions Fewer Conditions

10-Day Weather Forecast

Almanac

Astronomy

Oct. 25, 2014 Rise Set
Actual Time 8:03 AM EDT 6:45 PM EDT
Civil Twilight 7:35 AM EDT 7:13 PM EDT
Nautical Twilight 7:02 AM EDT 7:45 PM EDT
Astronomical Twilight 6:31 AM EDT 8:17 PM EDT
Moon 9:42 AM EDT 8:07 PM EDT
Length of Visible Light 11h 38m
Length of Day
10h 41m
Tomorrow will be 2m 31s shorter.
Waxing Crescent, 4% of the Moon is Illuminated
Today
Waxing Crescent
Oct 30
First Quarter
Nov 6
Full
Nov 14
Last Quarter
Nov 22
New

Today's Extremes

State Highs State Lows

Community

WunderPhotos

Upload Photos

1,765,016 photos uploaded!

Nearby

Air Quality

  Air Quality AQ Index Pollutant
Yesterday Moderate
PM2.5
Current Moderate
PM2.5
Saturday Good
OZONE
Saturday Good
PM2.5
Sunday Moderate
PM2.5
Sunday Good
OZONE
Monday Moderate
PM2.5
Monday Good
OZONE

Snow Depth

Station Depth Elevation
No new snow has been reported.

Earthquake Activity

City Distance Mag. Time & Date
No recent earthquake activity has been reported nearby.
Minimum magnitude displayed is 2.5.

Coastal Water Temperatures

Place Temperature
No Stations Reporting

Nearby Weather Stations